Time;durP1;ratioP1;P1;durP2;ratioP2;P2;SDS_P1;SDS_P2;PMS_P1;PMS_P2;Temp;Humidity;BMP_temperature;BMP_pressure;BME280_temperature;BME280_humidity;BME280_pressure;Samples;Min_cycle;Max_cycle;Signal;HPM_P1;HPM_P2
2022/11/05 00:09:32;;;;;;;0.70;0.33;;;8.20;99.90;;;;;;5093380;28;20408;-80
2022/11/05 00:17:32;;;;;;;0.30;0.30;;;8.10;99.90;;;;;;5092872;28;20966;-80
2022/11/05 00:19:59;;;;;;;0.40;0.40;;;8.10;99.90;;;;;;5096305;28;20538;-80
2022/11/05 00:25:15;;;;;;;0.30;0.30;;;8.10;99.90;;;;;;5097235;28;20893;-80
2022/11/05 00:27:43;;;;;;;0.40;0.40;;;8.10;99.90;;;;;;5110076;28;20454;-80
2022/11/05 00:30:11;;;;;;;0.40;0.40;;;8.00;99.90;;;;;;5117301;28;20451;-80
2022/11/05 00:32:39;;;;;;;0.30;0.30;;;8.10;99.90;;;;;;5116920;28;21009;-80
2022/11/05 00:35:07;;;;;;;0.60;0.40;;;8.00;99.90;;;;;;5110546;28;20459;-80
2022/11/05 00:37:34;;;;;;;0.30;0.30;;;8.10;99.90;;;;;;5116118;28;20444;-79
2022/11/05 00:40:01;;;;;;;0.30;0.20;;;8.10;99.90;;;;;;5112563;28;20483;-80
2022/11/05 00:45:12;;;;;;;0.30;0.30;;;8.20;99.90;;;;;;5096477;28;20805;-80
2022/11/05 00:50:25;;;;;;;0.30;0.30;;;8.30;99.90;;;;;;5096601;28;20423;-80
2022/11/05 00:52:56;;;;;;;0.30;0.23;;;8.30;99.90;;;;;;5098772;28;20504;-80
2022/11/05 00:55:24;;;;;;;0.30;0.27;;;8.20;99.90;;;;;;5096124;28;20448;-80
2022/11/05 00:57:51;;;;;;;0.50;0.30;;;8.20;99.90;;;;;;5104050;28;20450;-80
2022/11/05 01:00:18;;;;;;;0.37;0.30;;;8.20;99.90;;;;;;5111907;28;20475;-80
2022/11/05 01:02:46;;;;;;;0.30;0.30;;;8.20;99.90;;;;;;5096223;28;20600;-80
2022/11/05 01:05:13;;;;;;;0.33;0.27;;;8.30;99.90;;;;;;5112836;28;20458;-80
2022/11/05 01:07:40;;;;;;;0.30;0.20;;;8.30;99.90;;;;;;5116228;28;20457;-79
2022/11/05 01:10:08;;;;;;;0.43;0.30;;;8.20;99.90;;;;;;5116624;28;20440;-79
2022/11/05 01:12:35;;;;;;;0.40;0.33;;;8.20;99.90;;;;;;5112292;28;20476;-79
2022/11/05 01:15:02;;;;;;;0.33;0.30;;;8.20;99.90;;;;;;5096237;28;20441;-79
2022/11/05 01:17:29;;;;;;;0.40;0.27;;;8.00;99.90;;;;;;5111294;28;20471;-80
2022/11/05 01:19:57;;;;;;;0.30;0.30;;;8.00;99.90;;;;;;5116347;28;20483;-80
2022/11/05 01:22:24;;;;;;;0.30;0.20;;;8.00;99.90;;;;;;5116148;28;20493;-80
2022/11/05 01:24:51;;;;;;;0.30;0.20;;;8.00;99.90;;;;;;5116411;28;20840;-80
2022/11/05 01:27:17;;;;;;;0.40;0.30;;;8.00;99.90;;;;;;5116463;28;20448;-80
2022/11/05 01:29:44;;;;;;;0.30;0.30;;;8.00;99.90;;;;;;5115996;28;20446;-80
2022/11/05 01:32:11;;;;;;;0.30;0.30;;;8.10;99.90;;;;;;5105801;28;20463;-80
2022/11/05 01:34:38;;;;;;;0.70;0.70;;;8.00;99.90;;;;;;5111259;27;20459;-79
2022/11/05 01:37:06;;;;;;;0.40;0.30;;;8.10;99.90;;;;;;5106517;28;20850;-80
2022/11/05 01:39:33;;;;;;;0.30;0.30;;;8.10;99.90;;;;;;5095724;28;20477;-80
2022/11/05 01:42:00;;;;;;;0.30;0.20;;;8.10;99.90;;;;;;5104061;28;20479;-80
2022/11/05 01:44:49;;;;;;;0.30;0.20;;;8.20;99.90;;;;;;5115942;28;20454;-79
2022/11/05 01:47:25;;;;;;;0.30;0.30;;;8.20;99.90;;;;;;5115974;28;20436;-80
2022/11/05 01:49:53;;;;;;;0.30;0.30;;;8.20;99.90;;;;;;5108104;28;20543;-80
2022/11/05 01:52:22;;;;;;;0.30;0.20;;;8.30;99.90;;;;;;5095466;28;20504;-80
2022/11/05 01:54:49;;;;;;;0.30;0.23;;;8.20;99.90;;;;;;5105377;28;20458;-80
2022/11/05 01:57:16;;;;;;;0.30;0.30;;;8.20;99.90;;;;;;5095854;28;20451;-80
2022/11/05 01:59:46;;;;;;;0.33;0.27;;;8.20;99.90;;;;;;5095853;28;20485;-79
2022/11/05 02:02:13;;;;;;;0.30;0.20;;;8.20;99.90;;;;;;5107944;28;20542;-80
2022/11/05 02:04:45;;;;;;;0.30;0.30;;;8.20;99.90;;;;;;5109629;28;20817;-80
2022/11/05 02:07:13;;;;;;;0.40;0.40;;;8.30;99.90;;;;;;5109589;28;20820;-80
2022/11/05 02:09:45;;;;;;;0.30;0.30;;;8.30;99.90;;;;;;5115557;28;20443;-80
2022/11/05 02:12:13;;;;;;;0.30;0.30;;;8.30;99.90;;;;;;5101483;28;20500;-80
2022/11/05 02:14:40;;;;;;;0.30;0.23;;;8.30;99.90;;;;;;5094872;28;20449;-80
2022/11/05 02:17:13;;;;;;;0.47;0.47;;;8.30;99.90;;;;;;5094627;28;20477;-80
2022/11/05 02:20:08;;;;;;;0.30;0.30;;;8.30;99.90;;;;;;5094915;28;20559;-80
2022/11/05 02:23:27;;;;;;;0.30;0.30;;;8.30;99.90;;;;;;5099498;28;20557;-80
2022/11/05 02:26:38;;;;;;;0.30;0.30;;;8.20;99.90;;;;;;5068087;28;20444;-80
2022/11/05 02:29:47;;;;;;;0.30;0.20;;;8.20;99.90;;;;;;5110658;28;20822;-80
2022/11/05 02:32:26;;;;;;;0.40;0.30;;;8.20;99.90;;;;;;5092854;28;20472;-80
2022/11/05 02:35:01;;;;;;;0.30;0.20;;;8.30;99.90;;;;;;5103255;28;20802;-80
2022/11/05 02:37:38;;;;;;;0.30;0.20;;;8.30;99.90;;;;;;5103631;28;20452;-80
2022/11/05 02:40:13;;;;;;;0.30;0.30;;;8.30;99.90;;;;;;5094153;28;20468;-80
2022/11/05 02:42:45;;;;;;;0.30;0.20;;;8.30;99.90;;;;;;5093638;28;20478;-80
2022/11/05 02:45:25;;;;;;;0.30;0.30;;;8.30;99.90;;;;;;5094702;28;20457;-80
2022/11/05 02:47:58;;;;;;;0.40;0.30;;;8.40;99.90;;;;;;5094498;28;20464;-80
2022/11/05 02:50:30;;;;;;;1.13;0.50;;;8.40;99.90;;;;;;5094410;28;20428;-80
2022/11/05 02:53:02;;;;;;;0.30;0.23;;;8.40;99.90;;;;;;5094369;28;20468;-80
2022/11/05 02:55:34;;;;;;;0.30;0.30;;;8.40;99.90;;;;;;5094214;28;20437;-80
2022/11/05 02:58:03;;;;;;;0.30;0.20;;;8.50;99.90;;;;;;5093694;28;20460;-79
2022/11/05 03:00:42;;;;;;;0.30;0.20;;;8.40;99.90;;;;;;5095853;28;20484;-79
2022/11/05 03:03:16;;;;;;;0.30;0.20;;;8.50;99.90;;;;;;5105043;28;20477;-79
2022/11/05 03:05:51;;;;;;;0.30;0.30;;;8.50;99.90;;;;;;5096045;28;20436;-80
2022/11/05 03:08:31;;;;;;;0.30;0.20;;;8.40;99.90;;;;;;5110011;28;20458;-79
2022/11/05 03:11:05;;;;;;;0.50;0.37;;;8.50;99.90;;;;;;5114110;28;20426;-79
2022/11/05 03:13:44;;;;;;;0.30;0.30;;;8.50;99.90;;;;;;5097723;28;20858;-80
2022/11/05 03:16:18;;;;;;;0.40;0.40;;;8.50;99.90;;;;;;5093827;28;20802;-80
2022/11/05 03:18:50;;;;;;;0.30;0.30;;;8.50;99.90;;;;;;5093759;28;20436;-80
2022/11/05 03:21:21;;;;;;;0.30;0.20;;;8.50;99.90;;;;;;5093750;28;20439;-80
2022/11/05 03:23:54;;;;;;;0.40;0.30;;;8.40;99.90;;;;;;5093534;28;20571;-80
2022/11/05 03:26:26;;;;;;;0.30;0.30;;;8.40;99.90;;;;;;5099232;28;20486;-80
2022/11/05 03:28:56;;;;;;;0.30;0.30;;;8.40;99.90;;;;;;5093659;28;20814;-79
2022/11/05 03:31:25;;;;;;;0.30;0.23;;;8.40;99.90;;;;;;5099290;28;20444;-79
2022/11/05 03:33:55;;;;;;;0.40;0.30;;;8.40;99.90;;;;;;5108814;28;20951;-79
2022/11/05 03:36:27;;;;;;;0.30;0.30;;;8.30;99.90;;;;;;5093255;28;20970;-79
2022/11/05 03:38:57;;;;;;;0.40;0.30;;;8.30;99.90;;;;;;5093260;28;20936;-79
2022/11/05 03:41:25;;;;;;;0.40;0.37;;;8.40;99.90;;;;;;5092991;28;20951;-79
2022/11/05 03:43:56;;;;;;;0.30;0.30;;;8.40;99.90;;;;;;5103481;28;20455;-79
2022/11/05 03:46:27;;;;;;;0.30;0.20;;;8.40;99.90;;;;;;5096556;28;20466;-79
2022/11/05 03:48:58;;;;;;;0.70;0.40;;;8.40;99.90;;;;;;5093527;28;20441;-80
2022/11/05 03:51:32;;;;;;;0.40;0.30;;;8.30;99.90;;;;;;5101855;28;20460;-79
2022/11/05 03:54:01;;;;;;;0.30;0.20;;;8.20;99.90;;;;;;5113838;28;20436;-80
2022/11/05 03:56:33;;;;;;;0.30;0.30;;;8.20;99.90;;;;;;5095655;28;20453;-79
2022/11/05 03:59:01;;;;;;;0.47;0.30;;;8.20;99.90;;;;;;5111909;28;20434;-80
2022/11/05 04:01:29;;;;;;;0.30;0.20;;;8.20;99.90;;;;;;5104906;28;20455;-80
2022/11/05 04:03:58;;;;;;;0.37;0.27;;;8.20;99.90;;;;;;5113528;28;20816;-80
2022/11/05 04:14:38;;;;;;;0.30;0.20;;;8.30;99.90;;;;;;5094798;28;20444;-79
2022/11/05 04:17:08;;;;;;;1.00;0.53;;;8.30;99.90;;;;;;5107952;28;20510;-79
2022/11/05 04:25:07;;;;;;;0.30;0.20;;;8.40;99.90;;;;;;5093220;28;20405;-79
2022/11/05 04:27:34;;;;;;;0.40;0.30;;;8.40;99.90;;;;;;5108993;28;20450;-79
2022/11/05 04:30:18;;;;;;;0.30;0.30;;;8.40;99.90;;;;;;5092969;28;20444;-79
2022/11/05 04:33:04;;;;;;;0.30;0.30;;;8.50;99.90;;;;;;5095901;28;20471;-78
2022/11/05 04:35:34;;;;;;;0.30;0.27;;;8.50;99.90;;;;;;5112539;28;20468;-78
2022/11/05 04:38:02;;;;;;;0.40;0.30;;;8.50;99.90;;;;;;5107805;28;20457;-79
2022/11/05 04:40:29;;;;;;;0.30;0.20;;;8.50;99.90;;;;;;5111659;28;20487;-78
2022/11/05 04:42:57;;;;;;;0.30;0.20;;;8.50;99.90;;;;;;5108600;28;20834;-78
2022/11/05 04:45:25;;;;;;;0.30;0.30;;;8.50;99.90;;;;;;5102896;28;20472;-78
2022/11/05 04:47:52;;;;;;;0.30;0.30;;;8.40;99.90;;;;;;5092973;28;21037;-78
2022/11/05 04:50:19;;;;;;;0.50;0.50;;;8.40;99.90;;;;;;5101815;28;20539;-78
2022/11/05 04:52:47;;;;;;;0.40;0.30;;;8.50;99.90;;;;;;5101846;28;20826;-78
2022/11/05 04:55:15;;;;;;;1.13;0.40;;;8.50;99.90;;;;;;5108252;28;20454;-78
2022/11/05 04:57:41;;;;;;;0.40;0.30;;;8.40;99.90;;;;;;5092826;28;20437;-79
2022/11/05 05:00:10;;;;;;;0.40;0.30;;;8.50;99.90;;;;;;5104767;28;20483;-78
2022/11/05 05:02:37;;;;;;;0.30;0.30;;;8.40;99.90;;;;;;5107090;28;20834;-78
2022/11/05 05:05:05;;;;;;;0.30;0.20;;;8.40;99.90;;;;;;5093800;28;20927;-78
2022/11/05 05:07:33;;;;;;;0.30;0.20;;;8.40;99.90;;;;;;5095991;28;20950;-78
2022/11/05 05:10:01;;;;;;;0.30;0.30;;;8.40;99.90;;;;;;5096279;28;20831;-78
2022/11/05 05:12:28;;;;;;;0.50;0.40;;;8.30;99.90;;;;;;5100130;28;20464;-78
2022/11/05 05:14:55;;;;;;;0.30;0.30;;;8.40;99.90;;;;;;5103583;28;20472;-79
2022/11/05 05:17:22;;;;;;;0.30;0.20;;;8.40;99.90;;;;;;5095838;28;21005;-79
2022/11/05 05:22:39;;;;;;;0.30;0.20;;;8.40;99.90;;;;;;5040149;28;20566;-79
2022/11/05 05:25:08;;;;;;;0.30;0.20;;;8.30;99.90;;;;;;5100450;28;20436;-79
2022/11/05 05:27:35;;;;;;;0.30;0.30;;;8.30;99.90;;;;;;5095871;28;20934;-79
2022/11/05 05:30:02;;;;;;;0.40;0.30;;;8.30;99.90;;;;;;5095652;28;20843;-79
2022/11/05 05:32:29;;;;;;;0.40;0.30;;;8.20;99.90;;;;;;5115580;28;20467;-79
2022/11/05 05:34:56;;;;;;;0.30;0.30;;;8.20;99.90;;;;;;5113730;28;20455;-79
2022/11/05 05:37:22;;;;;;;0.40;0.30;;;8.20;99.90;;;;;;5096198;28;20467;-78
2022/11/05 05:39:49;;;;;;;0.50;0.30;;;8.20;99.90;;;;;;5095432;28;21076;-79
2022/11/05 05:42:20;;;;;;;0.77;0.40;;;8.20;99.90;;;;;;5095784;28;20581;-79
2022/11/05 05:44:46;;;;;;;0.30;0.20;;;8.20;99.90;;;;;;5095552;28;20433;-79
2022/11/05 05:47:14;;;;;;;0.30;0.20;;;8.10;99.90;;;;;;5095265;28;20461;-79
2022/11/05 05:49:40;;;;;;;0.30;0.30;;;8.10;99.90;;;;;;5095673;28;20455;-78
2022/11/05 05:52:07;;;;;;;0.30;0.30;;;8.20;99.90;;;;;;5104281;28;20564;-78
2022/11/05 05:54:34;;;;;;;0.30;0.30;;;8.10;99.90;;;;;;5097741;28;20455;-79
2022/11/05 05:57:01;;;;;;;0.30;0.20;;;8.10;99.90;;;;;;5112268;28;20467;-79
2022/11/05 05:59:29;;;;;;;0.30;0.20;;;8.10;99.90;;;;;;5094670;28;20967;-79
2022/11/05 06:01:56;;;;;;;0.50;0.40;;;8.20;99.90;;;;;;5111306;28;20486;-79
2022/11/05 06:04:22;;;;;;;0.30;0.20;;;8.20;99.90;;;;;;5107803;28;20810;-79
2022/11/05 06:06:49;;;;;;;0.30;0.30;;;8.20;99.90;;;;;;5115601;28;20532;-79
2022/11/05 06:09:16;;;;;;;0.33;0.27;;;8.20;99.90;;;;;;5100423;28;20990;-79
2022/11/05 06:11:43;;;;;;;0.40;0.30;;;8.20;99.90;;;;;;5114882;28;20465;-79
2022/11/05 06:14:11;;;;;;;0.40;0.30;;;8.20;99.90;;;;;;5112318;28;20836;-79
2022/11/05 06:16:40;;;;;;;0.40;0.30;;;8.30;99.90;;;;;;5093453;28;20979;-79
2022/11/05 06:19:07;;;;;;;0.50;0.40;;;8.30;99.90;;;;;;5098249;28;20454;-79
2022/11/05 06:21:34;;;;;;;0.30;0.20;;;8.30;99.90;;;;;;5109318;28;20480;-78
2022/11/05 06:24:02;;;;;;;0.30;0.20;;;8.30;99.90;;;;;;5095744;28;20460;-79
2022/11/05 06:26:30;;;;;;;0.40;0.40;;;8.40;99.90;;;;;;5094816;28;20444;-79
2022/11/05 06:28:57;;;;;;;0.87;0.73;;;8.40;99.90;;;;;;5094411;28;20452;-79
2022/11/05 06:31:24;;;;;;;0.40;0.30;;;8.30;99.90;;;;;;5094698;28;20455;-79
2022/11/05 06:33:52;;;;;;;0.40;0.30;;;8.30;99.90;;;;;;5094576;28;20465;-79
2022/11/05 06:36:19;;;;;;;0.43;0.30;;;8.30;99.90;;;;;;5094622;28;20448;-79
2022/11/05 06:38:46;;;;;;;1.17;0.60;;;8.40;99.90;;;;;;5098460;28;20910;-78
2022/11/05 06:41:13;;;;;;;4.20;2.00;;;8.40;99.90;;;;;;5115450;28;20487;-78
2022/11/05 06:43:40;;;;;;;1.83;1.10;;;8.40;99.90;;;;;;5096687;28;20471;-79
2022/11/05 06:46:08;;;;;;;0.40;0.40;;;8.30;99.90;;;;;;5094460;28;20783;-78
2022/11/05 06:48:35;;;;;;;1.43;0.83;;;8.40;99.90;;;;;;5111371;28;20458;-78
2022/11/05 06:51:04;;;;;;;0.40;0.40;;;8.40;99.90;;;;;;5102952;28;20548;-79
2022/11/05 06:53:31;;;;;;;1.00;0.73;;;8.40;99.90;;;;;;5093972;28;20480;-79
2022/11/05 06:55:58;;;;;;;0.60;0.50;;;8.40;99.90;;;;;;5095170;28;20455;-79
2022/11/05 06:58:25;;;;;;;1.87;1.03;;;8.40;99.90;;;;;;5094070;28;20908;-79
2022/11/05 07:00:52;;;;;;;1.20;0.83;;;8.30;99.90;;;;;;5097664;28;20511;-78
2022/11/05 07:03:19;;;;;;;1.47;0.60;;;8.30;99.90;;;;;;5110836;28;20463;-79
2022/11/05 07:05:48;;;;;;;0.40;0.40;;;8.30;99.90;;;;;;5094002;28;20787;-79
2022/11/05 07:08:17;;;;;;;0.70;0.43;;;8.30;99.90;;;;;;5096220;28;20451;-79
2022/11/05 07:10:44;;;;;;;1.97;0.80;;;8.30;99.90;;;;;;5098217;28;21037;-80
2022/11/05 07:13:11;;;;;;;0.70;0.70;;;8.30;99.90;;;;;;5102358;28;20837;-80
2022/11/05 07:15:38;;;;;;;0.60;0.40;;;8.30;99.90;;;;;;5114225;28;20444;-79
2022/11/05 07:18:06;;;;;;;1.10;1.00;;;8.30;99.90;;;;;;5110159;28;20583;-79
2022/11/05 07:20:33;;;;;;;0.60;0.60;;;8.30;99.90;;;;;;5094009;28;20491;-80
2022/11/05 07:23:02;;;;;;;1.33;0.50;;;8.20;99.90;;;;;;5098944;28;20477;-79
2022/11/05 07:25:31;;;;;;;1.83;0.60;;;8.20;99.90;;;;;;5094275;28;20892;-79
2022/11/05 07:27:58;;;;;;;1.27;0.57;;;8.20;99.90;;;;;;5093200;28;20820;-79
2022/11/05 07:30:24;;;;;;;0.30;0.20;;;8.20;99.90;;;;;;5109735;28;20444;-79
2022/11/05 07:32:51;;;;;;;0.57;0.30;;;8.20;99.90;;;;;;5095248;28;20841;-80
2022/11/05 07:35:18;;;;;;;0.33;0.30;;;8.20;99.90;;;;;;5104564;28;20447;-80
2022/11/05 07:37:46;;;;;;;0.93;0.50;;;8.20;99.90;;;;;;5094105;28;20460;-80
2022/11/05 07:40:14;;;;;;;0.40;0.30;;;8.30;99.90;;;;;;5102956;28;20472;-80
2022/11/05 07:42:44;;;;;;;1.37;0.60;;;8.30;99.90;;;;;;5113319;28;20469;-80
2022/11/05 07:45:11;;;;;;;0.73;0.73;;;8.30;99.90;;;;;;5112867;28;20950;-80
2022/11/05 07:47:38;;;;;;;4.07;2.03;;;8.30;99.90;;;;;;5093255;28;20939;-80
2022/11/05 07:50:06;;;;;;;2.47;0.80;;;8.30;99.90;;;;;;5097784;28;20449;-80
2022/11/05 07:52:33;;;;;;;0.93;0.80;;;8.30;99.90;;;;;;5093515;28;20521;-80
2022/11/05 07:55:00;;;;;;;6.37;0.80;;;8.30;99.90;;;;;;5093538;28;20429;-79
2022/11/05 07:57:27;;;;;;;1.80;0.80;;;8.30;99.90;;;;;;5112808;28;20454;-79
2022/11/05 07:59:55;;;;;;;1.27;1.10;;;8.30;99.90;;;;;;5100579;28;20951;-79
2022/11/05 08:02:22;;;;;;;2.43;1.70;;;8.30;99.90;;;;;;5109380;28;20480;-80
2022/11/05 08:04:49;;;;;;;1.43;0.80;;;8.30;99.90;;;;;;5103477;28;20442;-80
2022/11/05 08:07:15;;;;;;;0.93;0.90;;;8.20;99.90;;;;;;5107304;28;20455;-80
2022/11/05 08:09:42;;;;;;;1.80;0.70;;;8.10;99.90;;;;;;5113554;28;20857;-80
2022/11/05 08:12:09;;;;;;;0.50;0.40;;;8.20;99.90;;;;;;5108773;28;20464;-80
2022/11/05 08:14:36;;;;;;;0.70;0.60;;;8.10;99.90;;;;;;5093323;28;20432;-80
2022/11/05 08:17:04;;;;;;;2.93;0.90;;;8.10;99.90;;;;;;5095704;28;20483;-79
2022/11/05 08:19:31;;;;;;;4.87;2.97;;;8.20;99.90;;;;;;5113463;28;20779;-80
2022/11/05 08:21:57;;;;;;;6.47;2.60;;;8.20;99.90;;;;;;5096977;28;21007;-80
2022/11/05 08:24:24;;;;;;;2.27;0.80;;;8.20;99.90;;;;;;5092934;28;20471;-79
2022/11/05 08:26:52;;;;;;;0.50;0.50;;;8.20;99.90;;;;;;5103121;28;21024;-79
2022/11/05 08:29:19;;;;;;;1.13;1.03;;;8.20;99.90;;;;;;5104193;28;20500;-79
2022/11/05 08:31:46;;;;;;;3.43;0.97;;;8.20;99.90;;;;;;5092871;28;20461;-78
2022/11/05 08:34:14;;;;;;;1.90;0.50;;;8.30;99.90;;;;;;5092637;28;20448;-78
2022/11/05 08:36:45;;;;;;;1.67;1.00;;;8.30;99.90;;;;;;5093114;28;20531;-78
2022/11/05 08:39:12;;;;;;;4.10;1.53;;;8.40;99.90;;;;;;5100954;28;20539;-78
2022/11/05 08:41:39;;;;;;;1.20;0.60;;;8.40;99.90;;;;;;5117194;28;20487;-78
2022/11/05 08:44:07;;;;;;;1.43;0.70;;;8.30;99.90;;;;;;5117215;28;20458;-78
2022/11/05 08:46:34;;;;;;;0.30;0.30;;;8.40;99.90;;;;;;5116252;28;20464;-78
2022/11/05 08:49:01;;;;;;;3.70;0.70;;;8.50;99.90;;;;;;5117478;28;20500;-78
2022/11/05 08:51:30;;;;;;;0.80;0.50;;;8.60;99.90;;;;;;5110600;28;20444;-78
2022/11/05 08:53:57;;;;;;;0.63;0.60;;;8.60;99.90;;;;;;5096772;28;20940;-78
2022/11/05 08:56:23;;;;;;;5.00;0.77;;;8.80;99.90;;;;;;5101950;28;20459;-78
2022/11/05 08:58:50;;;;;;;1.83;1.10;;;9.00;99.90;;;;;;5097772;28;20459;-78
2022/11/05 09:01:17;;;;;;;0.43;0.43;;;9.10;99.90;;;;;;5098106;28;20483;-78
2022/11/05 09:03:44;;;;;;;0.60;0.40;;;9.10;99.90;;;;;;5099641;28;20948;-77
2022/11/05 09:06:10;;;;;;;0.83;0.83;;;9.10;99.90;;;;;;5115922;28;20459;-77
2022/11/05 09:08:39;;;;;;;2.90;1.90;;;9.10;99.90;;;;;;5110628;28;20441;-77
2022/11/05 09:11:05;;;;;;;0.40;0.40;;;9.10;99.90;;;;;;5096319;28;20993;-80
2022/11/05 09:13:32;;;;;;;0.60;0.50;;;9.20;99.90;;;;;;5095937;28;21010;-78
2022/11/05 09:15:59;;;;;;;0.43;0.43;;;9.20;99.90;;;;;;5099549;28;20451;-77
2022/11/05 09:18:26;;;;;;;0.70;0.70;;;9.20;99.90;;;;;;5105772;28;20487;-77
2022/11/05 09:20:53;;;;;;;1.03;0.63;;;9.20;99.90;;;;;;5112549;28;20989;-77
2022/11/05 09:23:20;;;;;;;0.90;0.50;;;9.30;99.90;;;;;;5102751;28;20528;-77
2022/11/05 09:25:48;;;;;;;1.63;0.60;;;9.40;99.90;;;;;;5096046;28;20962;-77
2022/11/05 09:28:17;;;;;;;1.03;0.87;;;9.50;99.90;;;;;;5104423;28;20439;-77
2022/11/05 09:30:45;;;;;;;1.27;0.40;;;9.60;99.90;;;;;;5104792;28;20456;-77
2022/11/05 09:33:12;;;;;;;0.50;0.50;;;10.20;99.90;;;;;;5095899;28;20468;-78
2022/11/05 09:35:39;;;;;;;0.60;0.40;;;10.70;99.90;;;;;;5104524;28;20491;-78
2022/11/05 09:38:06;;;;;;;1.00;0.70;;;11.00;99.90;;;;;;5104045;28;20964;-78
2022/11/05 09:40:40;;;;;;;1.53;0.57;;;11.30;99.90;;;;;;5110282;28;20466;-77
2022/11/05 09:43:15;;;;;;;0.70;0.50;;;11.30;99.90;;;;;;5114275;28;20526;-78
2022/11/05 09:45:42;;;;;;;1.47;0.50;;;11.10;99.90;;;;;;5108171;27;20803;-78
2022/11/05 09:48:15;;;;;;;0.97;0.90;;;10.80;99.90;;;;;;5115607;28;20440;-78
2022/11/05 09:50:45;;;;;;;2.77;0.80;;;10.60;99.90;;;;;;5111512;28;20943;-78
2022/11/05 09:53:15;;;;;;;1.57;0.53;;;10.40;99.90;;;;;;5095014;28;20468;-78
2022/11/05 09:55:45;;;;;;;0.80;0.50;;;10.10;99.90;;;;;;5106402;28;20546;-78
2022/11/05 09:58:20;;;;;;;1.30;0.80;;;10.00;99.90;;;;;;5109835;28;20453;-77
2022/11/05 10:00:51;;;;;;;3.80;1.43;;;9.90;99.90;;;;;;5099439;28;20483;-78
2022/11/05 10:03:22;;;;;;;2.37;0.93;;;9.80;99.90;;;;;;5097796;28;20551;-78
2022/11/05 10:05:50;;;;;;;1.67;0.70;;;9.80;99.90;;;;;;5107380;28;20466;-78
2022/11/05 10:08:22;;;;;;;0.50;0.50;;;9.80;99.90;;;;;;5099850;28;20452;-78
2022/11/05 10:10:51;;;;;;;1.07;0.43;;;9.90;99.90;;;;;;5095342;28;20452;-78
2022/11/05 10:13:25;;;;;;;0.83;0.50;;;9.90;99.90;;;;;;5095101;28;20465;-78
2022/11/05 10:16:00;;;;;;;0.67;0.67;;;10.10;99.90;;;;;;5095377;28;20452;-78
2022/11/05 10:18:32;;;;;;;1.40;0.60;;;10.20;99.90;;;;;;5102875;28;20519;-78
2022/11/05 10:20:59;;;;;;;2.03;0.77;;;10.20;99.90;;;;;;5095083;28;20472;-78
2022/11/05 10:23:27;;;;;;;1.47;0.60;;;10.20;99.90;;;;;;5094648;28;20473;-78
2022/11/05 10:25:57;;;;;;;2.87;0.50;;;10.10;99.90;;;;;;5098403;28;20846;-78
2022/11/05 10:28:26;;;;;;;1.83;0.60;;;10.10;99.90;;;;;;5111473;28;20468;-78
2022/11/05 10:30:58;;;;;;;0.77;0.60;;;10.10;99.90;;;;;;5106952;28;20928;-78
2022/11/05 10:33:30;;;;;;;1.20;0.80;;;10.00;99.90;;;;;;5112004;27;20479;-78
2022/11/05 10:36:03;;;;;;;1.10;1.00;;;10.00;99.90;;;;;;5114997;28;20443;-79
2022/11/05 10:38:30;;;;;;;0.50;0.50;;;10.00;99.90;;;;;;5096225;28;20456;-79
2022/11/05 10:41:18;;;;;;;0.70;0.67;;;10.20;99.90;;;;;;5094587;28;20517;-79
2022/11/05 10:43:50;;;;;;;1.43;0.70;;;10.40;99.90;;;;;;5094686;28;20464;-79
2022/11/05 10:46:28;;;;;;;1.97;1.03;;;10.50;99.90;;;;;;5094657;28;20429;-80
2022/11/05 10:49:11;;;;;;;1.47;0.60;;;10.60;99.90;;;;;;5094350;28;20456;-79
2022/11/05 10:51:39;;;;;;;0.60;0.50;;;10.70;99.90;;;;;;5093986;28;20602;-79
2022/11/05 10:54:13;;;;;;;1.67;1.33;;;10.60;99.90;;;;;;5093689;28;20465;-79
2022/11/05 10:56:41;;;;;;;1.20;0.97;;;10.60;99.90;;;;;;5093960;28;20455;-80
2022/11/05 10:59:21;;;;;;;1.27;0.57;;;10.50;99.90;;;;;;5111785;28;20456;-80
2022/11/05 11:01:55;;;;;;;0.80;0.40;;;10.50;99.90;;;;;;5112083;28;20574;-79
2022/11/05 11:04:25;;;;;;;0.80;0.80;;;10.70;99.90;;;;;;5101046;28;20453;-80
2022/11/05 11:06:54;;;;;;;1.13;0.80;;;10.80;99.90;;;;;;5102040;28;20485;-80
2022/11/05 11:09:26;;;;;;;1.70;0.50;;;10.70;99.90;;;;;;5111997;28;20451;-80
2022/11/05 11:12:01;;;;;;;0.70;0.70;;;10.90;99.90;;;;;;5113510;28;20559;-80
2022/11/05 11:14:29;;;;;;;0.60;0.60;;;10.90;99.90;;;;;;5104915;28;20482;-80
2022/11/05 11:17:23;;;;;;;0.90;0.70;;;11.10;99.90;;;;;;5114150;28;20567;-80
2022/11/05 11:19:52;;;;;;;0.87;0.87;;;11.30;99.90;;;;;;5114691;28;20454;-83
2022/11/05 11:22:21;;;;;;;0.90;0.60;;;11.30;99.90;;;;;;5114225;28;21063;-80
2022/11/05 11:24:52;;;;;;;2.80;0.90;;;11.50;99.90;;;;;;5114620;28;20443;-81
2022/11/05 11:27:23;;;;;;;1.10;0.67;;;11.50;99.90;;;;;;5114365;28;20436;-80
2022/11/05 11:29:57;;;;;;;0.90;0.57;;;11.50;99.90;;;;;;5114222;28;20915;-80
2022/11/05 11:32:28;;;;;;;1.93;0.67;;;11.60;99.90;;;;;;5114235;28;20468;-81
2022/11/05 11:34:56;;;;;;;0.77;0.63;;;11.50;99.90;;;;;;5114413;28;20547;-81
2022/11/05 11:37:26;;;;;;;0.53;0.53;;;11.30;99.90;;;;;;5114188;28;21042;-81
2022/11/05 11:39:57;;;;;;;0.40;0.40;;;11.20;99.90;;;;;;5114763;28;20450;-81
2022/11/05 11:42:29;;;;;;;0.80;0.60;;;11.00;99.90;;;;;;5113884;28;20969;-81
2022/11/05 11:44:59;;;;;;;0.43;0.37;;;10.90;99.90;;;;;;5114159;28;20522;-81
2022/11/05 11:47:28;;;;;;;0.70;0.50;;;10.90;99.90;;;;;;5114361;28;20431;-80
2022/11/05 11:49:57;;;;;;;0.67;0.67;;;10.90;99.90;;;;;;5114273;28;20495;-81
2022/11/05 11:52:27;;;;;;;1.50;0.50;;;10.80;99.90;;;;;;5114076;28;20463;-81
2022/11/05 11:55:16;;;;;;;5.07;0.67;;;10.90;99.90;;;;;;5114100;28;20427;-81
2022/11/05 11:57:45;;;;;;;0.57;0.50;;;10.90;99.90;;;;;;5113925;28;20447;-82
2022/11/05 12:00:15;;;;;;;0.40;0.40;;;11.00;99.90;;;;;;5113890;28;20444;-81
2022/11/05 12:03:03;;;;;;;0.40;0.40;;;11.10;99.90;;;;;;5113691;28;20510;-81
2022/11/05 12:05:36;;;;;;;2.13;0.90;;;11.20;99.90;;;;;;5113906;28;20444;-81
2022/11/05 12:08:19;;;;;;;0.40;0.37;;;11.30;99.90;;;;;;5114134;28;20455;-82
2022/11/05 12:10:57;;;;;;;0.70;0.40;;;11.20;99.90;;;;;;5113856;28;20442;-81
2022/11/05 12:13:57;;;;;;;2.10;0.70;;;11.20;99.90;;;;;;5113694;28;20469;-82
2022/11/05 12:16:46;;;;;;;0.70;0.50;;;11.10;99.90;;;;;;5117830;28;20451;-82
2022/11/05 12:19:24;;;;;;;0.47;0.47;;;11.20;99.90;;;;;;5118183;28;20439;-81
2022/11/05 12:21:59;;;;;;;3.50;0.93;;;11.20;99.90;;;;;;5117971;28;20491;-82
2022/11/05 12:24:55;;;;;;;0.47;0.40;;;11.30;99.90;;;;;;5117921;28;20437;-82
2022/11/05 12:27:36;;;;;;;0.40;0.40;;;11.30;99.90;;;;;;5117809;28;20434;-82
2022/11/05 12:30:05;;;;;;;0.63;0.40;;;11.30;99.90;;;;;;5117850;28;20435;-82
2022/11/05 12:32:53;;;;;;;2.20;0.50;;;11.30;99.90;;;;;;5117373;28;21031;-82
2022/11/05 12:35:34;;;;;;;5.33;0.70;;;11.30;99.90;;;;;;5117993;28;20427;-82
2022/11/05 12:38:11;;;;;;;0.60;0.60;;;11.30;99.90;;;;;;5117625;28;20432;-82
2022/11/05 12:40:57;;;;;;;2.67;1.03;;;11.30;99.90;;;;;;5117747;28;20428;-82
2022/11/05 12:43:33;;;;;;;0.47;0.37;;;11.30;99.90;;;;;;5117121;28;20491;-82
2022/11/05 12:46:09;;;;;;;0.50;0.50;;;11.20;99.90;;;;;;5118636;28;20428;-82
2022/11/05 12:48:52;;;;;;;0.50;0.47;;;11.20;99.90;;;;;;5117476;28;20435;-82
2022/11/05 12:51:30;;;;;;;1.73;0.67;;;11.20;99.90;;;;;;5117419;28;20431;-82
2022/11/05 12:54:09;;;;;;;1.27;0.70;;;11.10;99.90;;;;;;5117362;28;20424;-82
2022/11/05 12:56:40;;;;;;;0.50;0.40;;;11.00;99.90;;;;;;5117352;28;20439;-82
2022/11/05 12:59:17;;;;;;;0.63;0.63;;;10.90;99.90;;;;;;5117305;28;20761;-82
2022/11/05 13:01:48;;;;;;;1.10;0.60;;;10.90;99.90;;;;;;5116868;28;20865;-82
2022/11/05 13:04:29;;;;;;;0.70;0.50;;;10.80;99.90;;;;;;5116868;28;20960;-82
2022/11/05 13:07:01;;;;;;;0.57;0.40;;;10.80;99.90;;;;;;5116792;28;20424;-82
2022/11/05 13:09:34;;;;;;;1.70;1.60;;;10.70;99.90;;;;;;5117087;28;20460;-82
2022/11/05 13:12:07;;;;;;;1.50;0.50;;;10.70;99.90;;;;;;5116611;28;21055;-82
2022/11/05 13:14:40;;;;;;;0.73;0.67;;;10.60;99.90;;;;;;5117447;27;20428;-82
2022/11/05 13:17:11;;;;;;;1.90;0.60;;;10.60;99.90;;;;;;5117987;28;20820;-82
2022/11/05 13:19:43;;;;;;;1.50;0.70;;;10.70;99.90;;;;;;5116825;28;20943;-82
2022/11/05 13:22:29;;;;;;;0.60;0.50;;;10.60;99.90;;;;;;5116414;28;20990;-83
2022/11/05 13:25:00;;;;;;;0.70;0.63;;;10.60;99.90;;;;;;5116908;28;20442;-82
2022/11/05 13:27:44;;;;;;;2.10;0.83;;;10.70;99.90;;;;;;5117198;28;20432;-82
2022/11/05 13:30:15;;;;;;;0.83;0.53;;;10.80;99.90;;;;;;5117414;28;20430;-82
2022/11/05 13:32:45;;;;;;;1.30;0.80;;;10.80;99.90;;;;;;5117462;28;20466;-82
2022/11/05 13:35:20;;;;;;;1.23;0.67;;;10.80;99.90;;;;;;5117035;28;20451;-82
2022/11/05 13:40:47;;;;;;;1.50;0.60;;;10.80;99.90;;;;;;5116698;28;20450;-83
2022/11/05 13:43:35;;;;;;;0.40;0.30;;;10.80;99.90;;;;;;5116572;28;20853;-83
2022/11/05 13:46:28;;;;;;;0.47;0.47;;;10.70;99.90;;;;;;5116771;28;20777;-82
2022/11/05 13:49:38;;;;;;;1.90;0.60;;;10.60;99.90;;;;;;5116704;28;20436;-83
2022/11/05 13:52:24;;;;;;;5.50;0.70;;;10.50;99.90;;;;;;5116628;28;20474;-83
2022/11/05 13:55:19;;;;;;;1.23;0.60;;;10.40;99.90;;;;;;5117023;28;20440;-83